sensor_id;sensor_type;location;lat;lon;timestamp;P1;durP1;ratioP1;P2;durP2;ratioP2
56399;SDS011;42298;53.638;9.876;2024-02-16T00:00:06;12.00;;;5.85;;
56399;SDS011;42298;53.638;9.876;2024-02-16T00:02:38;9.00;;;5.38;;
56399;SDS011;42298;53.638;9.876;2024-02-16T00:05:04;12.57;;;5.68;;
56399;SDS011;42298;53.638;9.876;2024-02-16T00:07:32;10.57;;;5.72;;
56399;SDS011;42298;53.638;9.876;2024-02-16T00:09:59;10.13;;;5.45;;
56399;SDS011;42298;53.638;9.876;2024-02-16T00:12:24;10.32;;;5.82;;
56399;SDS011;42298;53.638;9.876;2024-02-16T00:14:53;12.35;;;5.70;;
56399;SDS011;42298;53.638;9.876;2024-02-16T00:17:19;9.45;;;4.75;;
56399;SDS011;42298;53.638;9.876;2024-02-16T00:19:44;10.30;;;5.28;;
56399;SDS011;42298;53.638;9.876;2024-02-16T00:22:10;11.38;;;5.63;;
56399;SDS011;42298;53.638;9.876;2024-02-16T00:24:35;11.48;;;5.38;;
56399;SDS011;42298;53.638;9.876;2024-02-16T00:27:01;10.63;;;4.90;;
56399;SDS011;42298;53.638;9.876;2024-02-16T00:29:30;10.27;;;5.10;;
56399;SDS011;42298;53.638;9.876;2024-02-16T00:31:57;8.68;;;4.75;;
56399;SDS011;42298;53.638;9.876;2024-02-16T00:34:24;11.30;;;5.20;;
56399;SDS011;42298;53.638;9.876;2024-02-16T00:36:53;10.68;;;4.85;;
56399;SDS011;42298;53.638;9.876;2024-02-16T00:39:19;8.05;;;4.63;;
56399;SDS011;42298;53.638;9.876;2024-02-16T00:41:44;10.73;;;4.53;;
56399;SDS011;42298;53.638;9.876;2024-02-16T00:44:11;8.55;;;4.65;;
56399;SDS011;42298;53.638;9.876;2024-02-16T00:46:36;11.18;;;5.03;;
56399;SDS011;42298;53.638;9.876;2024-02-16T00:49:02;9.93;;;4.82;;
56399;SDS011;42298;53.638;9.876;2024-02-16T00:51:28;7.15;;;4.72;;
56399;SDS011;42298;53.638;9.876;2024-02-16T00:53:54;10.65;;;5.22;;
56399;SDS011;42298;53.638;9.876;2024-02-16T00:56:20;8.80;;;4.20;;
56399;SDS011;42298;53.638;9.876;2024-02-16T00:58:45;12.52;;;4.65;;
56399;SDS011;42298;53.638;9.876;2024-02-16T01:01:11;12.05;;;4.90;;
56399;SDS011;42298;53.638;9.876;2024-02-16T01:03:40;10.05;;;4.68;;
56399;SDS011;42298;53.638;9.876;2024-02-16T01:06:06;9.10;;;4.70;;
56399;SDS011;42298;53.638;9.876;2024-02-16T01:08:34;9.07;;;4.70;;
56399;SDS011;42298;53.638;9.876;2024-02-16T01:10:59;9.23;;;4.15;;
56399;SDS011;42298;53.638;9.876;2024-02-16T01:13:28;12.40;;;5.05;;
56399;SDS011;42298;53.638;9.876;2024-02-16T01:15:54;10.25;;;4.70;;
56399;SDS011;42298;53.638;9.876;2024-02-16T01:18:19;10.80;;;4.60;;
56399;SDS011;42298;53.638;9.876;2024-02-16T01:20:45;11.57;;;5.05;;
56399;SDS011;42298;53.638;9.876;2024-02-16T01:23:14;13.02;;;5.43;;
56399;SDS011;42298;53.638;9.876;2024-02-16T01:25:40;8.93;;;4.30;;
56399;SDS011;42298;53.638;9.876;2024-02-16T01:28:05;10.32;;;4.65;;
56399;SDS011;42298;53.638;9.876;2024-02-16T01:30:31;10.48;;;4.65;;
56399;SDS011;42298;53.638;9.876;2024-02-16T01:32:56;9.63;;;4.68;;
56399;SDS011;42298;53.638;9.876;2024-02-16T01:35:22;7.63;;;4.20;;
56399;SDS011;42298;53.638;9.876;2024-02-16T01:37:47;8.80;;;4.20;;
56399;SDS011;42298;53.638;9.876;2024-02-16T01:40:13;9.82;;;3.90;;
56399;SDS011;42298;53.638;9.876;2024-02-16T01:42:41;10.18;;;4.45;;
56399;SDS011;42298;53.638;9.876;2024-02-16T01:45:07;9.02;;;4.10;;
56399;SDS011;42298;53.638;9.876;2024-02-16T01:47:41;8.43;;;4.28;;
56399;SDS011;42298;53.638;9.876;2024-02-16T01:50:08;12.10;;;5.00;;
56399;SDS011;42298;53.638;9.876;2024-02-16T01:52:35;9.60;;;3.95;;
56399;SDS011;42298;53.638;9.876;2024-02-16T01:55:02;8.30;;;4.43;;
56399;SDS011;42298;53.638;9.876;2024-02-16T01:57:35;9.05;;;4.07;;
56399;SDS011;42298;53.638;9.876;2024-02-16T02:00:10;8.73;;;4.30;;
56399;SDS011;42298;53.638;9.876;2024-02-16T02:02:37;13.05;;;4.00;;
56399;SDS011;42298;53.638;9.876;2024-02-16T02:05:02;12.20;;;4.45;;
56399;SDS011;42298;53.638;9.876;2024-02-16T02:07:31;10.35;;;4.38;;
56399;SDS011;42298;53.638;9.876;2024-02-16T02:09:57;10.07;;;4.35;;
56399;SDS011;42298;53.638;9.876;2024-02-16T02:12:23;8.82;;;3.95;;
56399;SDS011;42298;53.638;9.876;2024-02-16T02:14:49;8.43;;;4.05;;
56399;SDS011;42298;53.638;9.876;2024-02-16T02:17:15;8.50;;;3.85;;
56399;SDS011;42298;53.638;9.876;2024-02-16T02:19:41;10.60;;;4.95;;
56399;SDS011;42298;53.638;9.876;2024-02-16T02:22:16;9.85;;;3.90;;
56399;SDS011;42298;53.638;9.876;2024-02-16T02:24:43;9.57;;;3.88;;
56399;SDS011;42298;53.638;9.876;2024-02-16T02:27:10;8.98;;;3.97;;
56399;SDS011;42298;53.638;9.876;2024-02-16T02:29:36;8.68;;;4.22;;
56399;SDS011;42298;53.638;9.876;2024-02-16T02:32:02;9.60;;;4.28;;
56399;SDS011;42298;53.638;9.876;2024-02-16T02:34:29;9.73;;;4.38;;
56399;SDS011;42298;53.638;9.876;2024-02-16T02:36:54;8.20;;;3.97;;
56399;SDS011;42298;53.638;9.876;2024-02-16T02:39:20;9.00;;;3.78;;
56399;SDS011;42298;53.638;9.876;2024-02-16T02:41:46;10.02;;;3.92;;
56399;SDS011;42298;53.638;9.876;2024-02-16T02:44:12;7.82;;;4.10;;
56399;SDS011;42298;53.638;9.876;2024-02-16T02:46:40;8.98;;;3.60;;
56399;SDS011;42298;53.638;9.876;2024-02-16T02:49:06;9.18;;;3.78;;
56399;SDS011;42298;53.638;9.876;2024-02-16T02:51:31;7.93;;;4.10;;
56399;SDS011;42298;53.638;9.876;2024-02-16T02:53:57;8.43;;;3.70;;
56399;SDS011;42298;53.638;9.876;2024-02-16T02:56:22;7.13;;;3.88;;
56399;SDS011;42298;53.638;9.876;2024-02-16T02:58:48;8.52;;;3.75;;
56399;SDS011;42298;53.638;9.876;2024-02-16T03:01:14;8.77;;;3.78;;
56399;SDS011;42298;53.638;9.876;2024-02-16T03:03:40;8.73;;;3.90;;
56399;SDS011;42298;53.638;9.876;2024-02-16T03:06:08;8.88;;;3.80;;
56399;SDS011;42298;53.638;9.876;2024-02-16T03:08:37;7.32;;;3.95;;
56399;SDS011;42298;53.638;9.876;2024-02-16T03:11:02;9.23;;;3.63;;
56399;SDS011;42298;53.638;9.876;2024-02-16T03:13:29;6.03;;;3.55;;
56399;SDS011;42298;53.638;9.876;2024-02-16T03:15:54;7.45;;;3.53;;
56399;SDS011;42298;53.638;9.876;2024-02-16T03:18:20;6.38;;;3.30;;
56399;SDS011;42298;53.638;9.876;2024-02-16T03:20:46;7.93;;;3.50;;
56399;SDS011;42298;53.638;9.876;2024-02-16T03:23:13;9.00;;;3.70;;
56399;SDS011;42298;53.638;9.876;2024-02-16T03:25:39;8.60;;;3.92;;
56399;SDS011;42298;53.638;9.876;2024-02-16T03:28:05;7.57;;;3.08;;
56399;SDS011;42298;53.638;9.876;2024-02-16T03:30:32;7.78;;;3.55;;
56399;SDS011;42298;53.638;9.876;2024-02-16T03:32:59;7.90;;;3.55;;
56399;SDS011;42298;53.638;9.876;2024-02-16T03:35:24;9.45;;;3.60;;
56399;SDS011;42298;53.638;9.876;2024-02-16T03:37:51;9.30;;;3.88;;
56399;SDS011;42298;53.638;9.876;2024-02-16T03:40:16;10.55;;;3.70;;
56399;SDS011;42298;53.638;9.876;2024-02-16T03:42:43;7.75;;;3.58;;
56399;SDS011;42298;53.638;9.876;2024-02-16T03:45:08;9.38;;;3.58;;
56399;SDS011;42298;53.638;9.876;2024-02-16T03:47:34;10.75;;;3.80;;
56399;SDS011;42298;53.638;9.876;2024-02-16T03:50:00;7.13;;;3.53;;
56399;SDS011;42298;53.638;9.876;2024-02-16T03:52:25;7.78;;;3.85;;
56399;SDS011;42298;53.638;9.876;2024-02-16T03:54:51;9.27;;;4.00;;
56399;SDS011;42298;53.638;9.876;2024-02-16T03:57:16;6.25;;;3.10;;
56399;SDS011;42298;53.638;9.876;2024-02-16T03:59:45;6.28;;;3.13;;
56399;SDS011;42298;53.638;9.876;2024-02-16T04:02:11;7.35;;;3.20;;
56399;SDS011;42298;53.638;9.876;2024-02-16T04:04:40;9.20;;;3.58;;
56399;SDS011;42298;53.638;9.876;2024-02-16T04:07:06;7.18;;;3.40;;
56399;SDS011;42298;53.638;9.876;2024-02-16T04:09:34;7.38;;;3.38;;
56399;SDS011;42298;53.638;9.876;2024-02-16T04:12:00;5.60;;;3.05;;
56399;SDS011;42298;53.638;9.876;2024-02-16T04:14:26;5.00;;;2.95;;
56399;SDS011;42298;53.638;9.876;2024-02-16T04:16:52;7.22;;;3.03;;
56399;SDS011;42298;53.638;9.876;2024-02-16T04:19:18;7.68;;;3.38;;
56399;SDS011;42298;53.638;9.876;2024-02-16T04:21:44;8.38;;;3.30;;
56399;SDS011;42298;53.638;9.876;2024-02-16T04:24:09;13.85;;;3.45;;
56399;SDS011;42298;53.638;9.876;2024-02-16T04:26:35;7.72;;;3.20;;
56399;SDS011;42298;53.638;9.876;2024-02-16T04:29:01;6.32;;;3.25;;
56399;SDS011;42298;53.638;9.876;2024-02-16T04:31:29;8.57;;;3.15;;
56399;SDS011;42298;53.638;9.876;2024-02-16T04:33:55;9.48;;;3.03;;
56399;SDS011;42298;53.638;9.876;2024-02-16T04:36:20;6.20;;;2.80;;
56399;SDS011;42298;53.638;9.876;2024-02-16T04:38:46;7.57;;;2.85;;
56399;SDS011;42298;53.638;9.876;2024-02-16T04:41:12;7.80;;;2.95;;
56399;SDS011;42298;53.638;9.876;2024-02-16T04:43:38;6.35;;;2.78;;
56399;SDS011;42298;53.638;9.876;2024-02-16T04:46:04;4.88;;;2.42;;
56399;SDS011;42298;53.638;9.876;2024-02-16T04:48:29;7.68;;;2.55;;
56399;SDS011;42298;53.638;9.876;2024-02-16T04:50:56;8.65;;;3.03;;
56399;SDS011;42298;53.638;9.876;2024-02-16T04:53:21;6.20;;;3.00;;
56399;SDS011;42298;53.638;9.876;2024-02-16T04:55:47;5.45;;;2.78;;
56399;SDS011;42298;53.638;9.876;2024-02-16T04:58:12;5.25;;;2.63;;
56399;SDS011;42298;53.638;9.876;2024-02-16T05:00:38;6.68;;;2.75;;
56399;SDS011;42298;53.638;9.876;2024-02-16T05:03:03;7.55;;;2.80;;
56399;SDS011;42298;53.638;9.876;2024-02-16T05:05:29;5.07;;;2.65;;
56399;SDS011;42298;53.638;9.876;2024-02-16T05:07:58;5.18;;;2.60;;
56399;SDS011;42298;53.638;9.876;2024-02-16T05:10:24;6.57;;;2.92;;
56399;SDS011;42298;53.638;9.876;2024-02-16T05:12:49;5.35;;;2.58;;
56399;SDS011;42298;53.638;9.876;2024-02-16T05:15:15;6.57;;;2.78;;
56399;SDS011;42298;53.638;9.876;2024-02-16T05:17:42;4.53;;;2.55;;
56399;SDS011;42298;53.638;9.876;2024-02-16T05:20:10;7.78;;;2.58;;
56399;SDS011;42298;53.638;9.876;2024-02-16T05:22:41;5.22;;;2.47;;
56399;SDS011;42298;53.638;9.876;2024-02-16T05:25:11;6.30;;;2.42;;
56399;SDS011;42298;53.638;9.876;2024-02-16T05:27:37;6.20;;;2.50;;
56399;SDS011;42298;53.638;9.876;2024-02-16T05:30:03;7.72;;;2.70;;
56399;SDS011;42298;53.638;9.876;2024-02-16T05:32:32;8.52;;;2.80;;
56399;SDS011;42298;53.638;9.876;2024-02-16T05:35:00;8.25;;;2.85;;
56399;SDS011;42298;53.638;9.876;2024-02-16T05:37:29;7.93;;;2.90;;
56399;SDS011;42298;53.638;9.876;2024-02-16T05:39:57;7.35;;;2.90;;
56399;SDS011;42298;53.638;9.876;2024-02-16T05:42:33;5.20;;;2.50;;
56399;SDS011;42298;53.638;9.876;2024-02-16T05:44:59;7.20;;;2.60;;
56399;SDS011;42298;53.638;9.876;2024-02-16T05:47:27;7.75;;;2.70;;
56399;SDS011;42298;53.638;9.876;2024-02-16T05:49:53;6.28;;;2.97;;
56399;SDS011;42298;53.638;9.876;2024-02-16T05:52:19;7.32;;;2.85;;
56399;SDS011;42298;53.638;9.876;2024-02-16T05:54:45;8.35;;;2.90;;
56399;SDS011;42298;53.638;9.876;2024-02-16T05:57:13;6.97;;;2.60;;
56399;SDS011;42298;53.638;9.876;2024-02-16T05:59:38;6.45;;;2.92;;
56399;SDS011;42298;53.638;9.876;2024-02-16T06:02:04;8.70;;;2.78;;
56399;SDS011;42298;53.638;9.876;2024-02-16T06:04:33;5.20;;;2.33;;
56399;SDS011;42298;53.638;9.876;2024-02-16T06:06:59;6.03;;;2.88;;
56399;SDS011;42298;53.638;9.876;2024-02-16T06:14:38;6.05;;;2.50;;
56399;SDS011;42298;53.638;9.876;2024-02-16T06:17:04;7.00;;;2.90;;
56399;SDS011;42298;53.638;9.876;2024-02-16T06:19:29;5.55;;;2.50;;
56399;SDS011;42298;53.638;9.876;2024-02-16T06:21:55;7.97;;;3.05;;
56399;SDS011;42298;53.638;9.876;2024-02-16T06:24:23;6.32;;;2.70;;
56399;SDS011;42298;53.638;9.876;2024-02-16T06:26:49;6.22;;;2.58;;
56399;SDS011;42298;53.638;9.876;2024-02-16T06:29:18;6.18;;;2.67;;
56399;SDS011;42298;53.638;9.876;2024-02-16T06:31:46;7.20;;;2.50;;
56399;SDS011;42298;53.638;9.876;2024-02-16T06:34:15;8.20;;;3.03;;
56399;SDS011;42298;53.638;9.876;2024-02-16T06:36:41;3.63;;;2.33;;
56399;SDS011;42298;53.638;9.876;2024-02-16T06:39:07;6.40;;;2.75;;
56399;SDS011;42298;53.638;9.876;2024-02-16T06:41:32;8.02;;;2.67;;
56399;SDS011;42298;53.638;9.876;2024-02-16T06:43:58;6.90;;;2.70;;
56399;SDS011;42298;53.638;9.876;2024-02-16T06:46:23;8.48;;;2.88;;
56399;SDS011;42298;53.638;9.876;2024-02-16T06:48:49;5.50;;;2.70;;
56399;SDS011;42298;53.638;9.876;2024-02-16T06:51:17;4.82;;;2.60;;
56399;SDS011;42298;53.638;9.876;2024-02-16T06:53:42;7.88;;;2.45;;
56399;SDS011;42298;53.638;9.876;2024-02-16T06:56:07;4.97;;;2.53;;
56399;SDS011;42298;53.638;9.876;2024-02-16T06:58:33;6.90;;;2.80;;
56399;SDS011;42298;53.638;9.876;2024-02-16T07:00:59;7.35;;;2.85;;
56399;SDS011;42298;53.638;9.876;2024-02-16T07:03:28;5.85;;;3.00;;
56399;SDS011;42298;53.638;9.876;2024-02-16T07:05:53;6.90;;;2.70;;
56399;SDS011;42298;53.638;9.876;2024-02-16T07:08:18;5.57;;;2.67;;
56399;SDS011;42298;53.638;9.876;2024-02-16T07:10:44;6.63;;;2.42;;
56399;SDS011;42298;53.638;9.876;2024-02-16T07:13:09;7.32;;;3.20;;
56399;SDS011;42298;53.638;9.876;2024-02-16T07:15:35;7.95;;;2.85;;
56399;SDS011;42298;53.638;9.876;2024-02-16T07:18:00;5.90;;;2.85;;
56399;SDS011;42298;53.638;9.876;2024-02-16T07:20:28;6.05;;;2.75;;
56399;SDS011;42298;53.638;9.876;2024-02-16T07:22:53;6.25;;;2.92;;
56399;SDS011;42298;53.638;9.876;2024-02-16T07:25:19;7.85;;;2.55;;
56399;SDS011;42298;53.638;9.876;2024-02-16T07:27:44;7.20;;;2.60;;
56399;SDS011;42298;53.638;9.876;2024-02-16T07:30:09;6.13;;;3.00;;
56399;SDS011;42298;53.638;9.876;2024-02-16T07:32:38;8.57;;;3.03;;
56399;SDS011;42298;53.638;9.876;2024-02-16T07:35:04;7.47;;;2.72;;
56399;SDS011;42298;53.638;9.876;2024-02-16T07:37:29;6.15;;;3.00;;
56399;SDS011;42298;53.638;9.876;2024-02-16T07:39:55;5.60;;;2.90;;
56399;SDS011;42298;53.638;9.876;2024-02-16T07:42:20;6.53;;;2.80;;
56399;SDS011;42298;53.638;9.876;2024-02-16T07:44:46;7.00;;;2.80;;
56399;SDS011;42298;53.638;9.876;2024-02-16T07:47:11;6.75;;;2.80;;
56399;SDS011;42298;53.638;9.876;2024-02-16T07:49:38;6.32;;;2.40;;
56399;SDS011;42298;53.638;9.876;2024-02-16T07:52:08;7.13;;;2.95;;
56399;SDS011;42298;53.638;9.876;2024-02-16T07:54:34;5.75;;;2.58;;
56399;SDS011;42298;53.638;9.876;2024-02-16T07:56:59;8.82;;;2.88;;
56399;SDS011;42298;53.638;9.876;2024-02-16T07:59:25;6.75;;;2.67;;
56399;SDS011;42298;53.638;9.876;2024-02-16T08:01:50;5.10;;;2.72;;
56399;SDS011;42298;53.638;9.876;2024-02-16T08:04:16;5.70;;;2.70;;
56399;SDS011;42298;53.638;9.876;2024-02-16T08:06:41;7.07;;;2.70;;
56399;SDS011;42298;53.638;9.876;2024-02-16T08:09:06;6.90;;;3.03;;
56399;SDS011;42298;53.638;9.876;2024-02-16T08:11:32;4.97;;;2.80;;
56399;SDS011;42298;53.638;9.876;2024-02-16T08:13:57;7.25;;;2.78;;
56399;SDS011;42298;53.638;9.876;2024-02-16T08:16:26;5.93;;;2.65;;
56399;SDS011;42298;53.638;9.876;2024-02-16T08:18:52;6.20;;;2.67;;
56399;SDS011;42298;53.638;9.876;2024-02-16T08:21:18;9.02;;;2.75;;
56399;SDS011;42298;53.638;9.876;2024-02-16T08:23:43;8.85;;;2.65;;
56399;SDS011;42298;53.638;9.876;2024-02-16T08:26:08;7.28;;;2.63;;
56399;SDS011;42298;53.638;9.876;2024-02-16T08:28:34;5.50;;;2.60;;
56399;SDS011;42298;53.638;9.876;2024-02-16T08:30:59;5.38;;;2.53;;
56399;SDS011;42298;53.638;9.876;2024-02-16T08:33:24;7.93;;;2.80;;
56399;SDS011;42298;53.638;9.876;2024-02-16T08:35:50;7.00;;;2.50;;
56399;SDS011;42298;53.638;9.876;2024-02-16T08:38:15;5.70;;;2.53;;
56399;SDS011;42298;53.638;9.876;2024-02-16T08:40:41;4.90;;;2.28;;
56399;SDS011;42298;53.638;9.876;2024-02-16T08:43:06;4.88;;;2.53;;
56399;SDS011;42298;53.638;9.876;2024-02-16T08:45:34;7.82;;;2.22;;
56399;SDS011;42298;53.638;9.876;2024-02-16T08:48:00;6.53;;;2.30;;
56399;SDS011;42298;53.638;9.876;2024-02-16T08:50:27;7.72;;;2.33;;
56399;SDS011;42298;53.638;9.876;2024-02-16T08:52:52;6.97;;;2.30;;
56399;SDS011;42298;53.638;9.876;2024-02-16T08:55:18;4.68;;;2.03;;
56399;SDS011;42298;53.638;9.876;2024-02-16T08:57:43;3.92;;;2.08;;
56399;SDS011;42298;53.638;9.876;2024-02-16T09:00:08;6.88;;;2.40;;
56399;SDS011;42298;53.638;9.876;2024-02-16T09:02:35;6.43;;;2.22;;
56399;SDS011;42298;53.638;9.876;2024-02-16T09:05:00;8.27;;;2.53;;
56399;SDS011;42298;53.638;9.876;2024-02-16T09:07:25;6.45;;;2.28;;
56399;SDS011;42298;53.638;9.876;2024-02-16T09:09:51;6.40;;;2.25;;
56399;SDS011;42298;53.638;9.876;2024-02-16T09:12:17;7.82;;;2.63;;
56399;SDS011;42298;53.638;9.876;2024-02-16T09:14:42;7.05;;;2.40;;
56399;SDS011;42298;53.638;9.876;2024-02-16T09:17:07;3.88;;;2.00;;
56399;SDS011;42298;53.638;9.876;2024-02-16T09:19:33;8.68;;;2.65;;
56399;SDS011;42298;53.638;9.876;2024-02-16T09:21:59;7.32;;;2.45;;
56399;SDS011;42298;53.638;9.876;2024-02-16T09:24:26;6.53;;;2.33;;
56399;SDS011;42298;53.638;9.876;2024-02-16T09:26:54;5.57;;;2.42;;
56399;SDS011;42298;53.638;9.876;2024-02-16T09:29:19;8.90;;;2.20;;
56399;SDS011;42298;53.638;9.876;2024-02-16T09:31:45;6.57;;;2.50;;
56399;SDS011;42298;53.638;9.876;2024-02-16T09:34:14;9.73;;;2.53;;
56399;SDS011;42298;53.638;9.876;2024-02-16T09:36:39;8.38;;;2.50;;
56399;SDS011;42298;53.638;9.876;2024-02-16T09:39:05;5.22;;;2.40;;
56399;SDS011;42298;53.638;9.876;2024-02-16T09:41:32;5.97;;;2.15;;
56399;SDS011;42298;53.638;9.876;2024-02-16T09:44:00;4.85;;;2.47;;
56399;SDS011;42298;53.638;9.876;2024-02-16T09:46:27;6.10;;;2.38;;
56399;SDS011;42298;53.638;9.876;2024-02-16T09:48:54;4.88;;;2.25;;
56399;SDS011;42298;53.638;9.876;2024-02-16T09:51:21;6.88;;;2.30;;
56399;SDS011;42298;53.638;9.876;2024-02-16T09:53:50;5.25;;;2.25;;
56399;SDS011;42298;53.638;9.876;2024-02-16T09:56:20;8.85;;;2.65;;
56399;SDS011;42298;53.638;9.876;2024-02-16T09:58:46;4.93;;;2.20;;
56399;SDS011;42298;53.638;9.876;2024-02-16T10:01:17;4.43;;;2.13;;
56399;SDS011;42298;53.638;9.876;2024-02-16T10:03:44;4.68;;;2.20;;
56399;SDS011;42298;53.638;9.876;2024-02-16T10:06:10;5.78;;;2.17;;
56399;SDS011;42298;53.638;9.876;2024-02-16T10:08:52;5.90;;;2.40;;
56399;SDS011;42298;53.638;9.876;2024-02-16T10:11:22;8.35;;;2.50;;
56399;SDS011;42298;53.638;9.876;2024-02-16T10:13:55;4.80;;;2.10;;
56399;SDS011;42298;53.638;9.876;2024-02-16T10:16:25;8.05;;;2.53;;
56399;SDS011;42298;53.638;9.876;2024-02-16T10:19:17;2.92;;;2.17;;
56399;SDS011;42298;53.638;9.876;2024-02-16T10:21:42;7.07;;;2.70;;
56399;SDS011;42298;53.638;9.876;2024-02-16T10:24:08;5.63;;;2.35;;
56399;SDS011;42298;53.638;9.876;2024-02-16T10:26:35;7.30;;;2.13;;
56399;SDS011;42298;53.638;9.876;2024-02-16T10:29:02;6.20;;;2.08;;
56399;SDS011;42298;53.638;9.876;2024-02-16T10:31:28;5.88;;;2.72;;
56399;SDS011;42298;53.638;9.876;2024-02-16T10:34:00;5.20;;;2.35;;
56399;SDS011;42298;53.638;9.876;2024-02-16T10:36:31;6.22;;;2.83;;
56399;SDS011;42298;53.638;9.876;2024-02-16T10:38:57;6.50;;;2.50;;
56399;SDS011;42298;53.638;9.876;2024-02-16T10:41:27;5.53;;;2.30;;
56399;SDS011;42298;53.638;9.876;2024-02-16T10:43:54;4.30;;;2.42;;
56399;SDS011;42298;53.638;9.876;2024-02-16T10:46:20;4.95;;;2.00;;
56399;SDS011;42298;53.638;9.876;2024-02-16T10:48:45;9.30;;;3.00;;
56399;SDS011;42298;53.638;9.876;2024-02-16T10:51:11;8.20;;;2.70;;
56399;SDS011;42298;53.638;9.876;2024-02-16T10:53:38;5.60;;;2.50;;
56399;SDS011;42298;53.638;9.876;2024-02-16T10:56:06;6.60;;;2.42;;
56399;SDS011;42298;53.638;9.876;2024-02-16T10:58:32;6.78;;;2.83;;
56399;SDS011;42298;53.638;9.876;2024-02-16T11:01:07;4.57;;;2.15;;
56399;SDS011;42298;53.638;9.876;2024-02-16T11:03:33;8.68;;;2.35;;
56399;SDS011;42298;53.638;9.876;2024-02-16T11:05:58;6.10;;;2.58;;
56399;SDS011;42298;53.638;9.876;2024-02-16T11:08:24;4.68;;;2.15;;
56399;SDS011;42298;53.638;9.876;2024-02-16T11:10:53;7.45;;;2.15;;
56399;SDS011;42298;53.638;9.876;2024-02-16T11:13:25;4.85;;;2.20;;
56399;SDS011;42298;53.638;9.876;2024-02-16T11:16:08;6.50;;;2.67;;
56399;SDS011;42298;53.638;9.876;2024-02-16T11:18:42;5.40;;;2.55;;
56399;SDS011;42298;53.638;9.876;2024-02-16T11:21:15;5.68;;;2.72;;
56399;SDS011;42298;53.638;9.876;2024-02-16T11:23:41;5.43;;;2.50;;
56399;SDS011;42298;53.638;9.876;2024-02-16T11:26:11;7.50;;;2.65;;
56399;SDS011;42298;53.638;9.876;2024-02-16T11:28:38;9.52;;;2.78;;
56399;SDS011;42298;53.638;9.876;2024-02-16T11:31:05;5.38;;;2.42;;
56399;SDS011;42298;53.638;9.876;2024-02-16T11:33:32;5.15;;;2.50;;
56399;SDS011;42298;53.638;9.876;2024-02-16T11:38:30;6.32;;;2.70;;
56399;SDS011;42298;53.638;9.876;2024-02-16T11:41:01;6.70;;;2.50;;
56399;SDS011;42298;53.638;9.876;2024-02-16T11:43:30;8.63;;;2.75;;
56399;SDS011;42298;53.638;9.876;2024-02-16T11:45:57;5.60;;;2.30;;
56399;SDS011;42298;53.638;9.876;2024-02-16T11:48:24;7.30;;;2.80;;
56399;SDS011;42298;53.638;9.876;2024-02-16T11:50:58;6.28;;;2.60;;
56399;SDS011;42298;53.638;9.876;2024-02-16T11:53:25;5.93;;;2.53;;
56399;SDS011;42298;53.638;9.876;2024-02-16T11:55:51;7.53;;;3.10;;
56399;SDS011;42298;53.638;9.876;2024-02-16T11:58:16;6.80;;;3.03;;
56399;SDS011;42298;53.638;9.876;2024-02-16T12:00:45;5.25;;;2.42;;
56399;SDS011;42298;53.638;9.876;2024-02-16T12:03:17;8.23;;;3.03;;
56399;SDS011;42298;53.638;9.876;2024-02-16T12:05:49;6.22;;;2.50;;
56399;SDS011;42298;53.638;9.876;2024-02-16T12:08:16;4.60;;;2.20;;
56399;SDS011;42298;53.638;9.876;2024-02-16T12:10:42;8.02;;;2.75;;
56399;SDS011;42298;53.638;9.876;2024-02-16T12:13:08;5.70;;;2.58;;
56399;SDS011;42298;53.638;9.876;2024-02-16T12:15:34;7.55;;;2.90;;
56399;SDS011;42298;53.638;9.876;2024-02-16T12:18:02;7.88;;;2.90;;
56399;SDS011;42298;53.638;9.876;2024-02-16T12:20:29;6.28;;;3.25;;
56399;SDS011;42298;53.638;9.876;2024-02-16T12:22:56;7.75;;;3.22;;
56399;SDS011;42298;53.638;9.876;2024-02-16T12:25:21;8.03;;;3.00;;
56399;SDS011;42298;53.638;9.876;2024-02-16T12:27:47;8.57;;;3.60;;
56399;SDS011;42298;53.638;9.876;2024-02-16T12:30:12;7.43;;;3.10;;
56399;SDS011;42298;53.638;9.876;2024-02-16T12:32:38;7.75;;;3.25;;
56399;SDS011;42298;53.638;9.876;2024-02-16T12:35:03;7.95;;;3.10;;
56399;SDS011;42298;53.638;9.876;2024-02-16T12:37:30;6.47;;;3.25;;
56399;SDS011;42298;53.638;9.876;2024-02-16T12:39:55;8.05;;;3.58;;
56399;SDS011;42298;53.638;9.876;2024-02-16T12:42:21;8.50;;;3.40;;
56399;SDS011;42298;53.638;9.876;2024-02-16T12:44:46;11.32;;;3.17;;
56399;SDS011;42298;53.638;9.876;2024-02-16T12:47:11;7.97;;;3.38;;
56399;SDS011;42298;53.638;9.876;2024-02-16T12:49:37;7.32;;;3.20;;
56399;SDS011;42298;53.638;9.876;2024-02-16T12:52:02;8.23;;;3.40;;
56399;SDS011;42298;53.638;9.876;2024-02-16T12:54:27;8.97;;;3.70;;
56399;SDS011;42298;53.638;9.876;2024-02-16T12:56:53;7.80;;;3.42;;
56399;SDS011;42298;53.638;9.876;2024-02-16T12:59:18;8.82;;;3.65;;
56399;SDS011;42298;53.638;9.876;2024-02-16T13:01:44;8.30;;;3.70;;
56399;SDS011;42298;53.638;9.876;2024-02-16T13:04:10;8.02;;;3.22;;
56399;SDS011;42298;53.638;9.876;2024-02-16T13:06:36;8.38;;;3.80;;
56399;SDS011;42298;53.638;9.876;2024-02-16T13:09:02;7.90;;;3.40;;
56399;SDS011;42298;53.638;9.876;2024-02-16T13:11:27;7.15;;;3.78;;
56399;SDS011;42298;53.638;9.876;2024-02-16T13:13:54;6.95;;;3.45;;
56399;SDS011;42298;53.638;9.876;2024-02-16T13:16:19;8.02;;;3.67;;
56399;SDS011;42298;53.638;9.876;2024-02-16T13:18:45;8.82;;;4.20;;
56399;SDS011;42298;53.638;9.876;2024-02-16T13:21:10;12.00;;;4.65;;
56399;SDS011;42298;53.638;9.876;2024-02-16T13:23:36;8.55;;;3.50;;
56399;SDS011;42298;53.638;9.876;2024-02-16T13:26:01;7.43;;;3.88;;
56399;SDS011;42298;53.638;9.876;2024-02-16T13:28:26;11.95;;;4.22;;
56399;SDS011;42298;53.638;9.876;2024-02-16T13:30:52;10.65;;;4.78;;
56399;SDS011;42298;53.638;9.876;2024-02-16T13:33:17;8.48;;;3.70;;
56399;SDS011;42298;53.638;9.876;2024-02-16T13:35:43;7.47;;;3.55;;
56399;SDS011;42298;53.638;9.876;2024-02-16T13:38:08;11.77;;;4.32;;
56399;SDS011;42298;53.638;9.876;2024-02-16T13:40:35;11.32;;;3.95;;
56399;SDS011;42298;53.638;9.876;2024-02-16T13:43:00;8.60;;;4.40;;
56399;SDS011;42298;53.638;9.876;2024-02-16T13:45:47;9.18;;;4.15;;
56399;SDS011;42298;53.638;9.876;2024-02-16T13:48:15;9.55;;;4.07;;
56399;SDS011;42298;53.638;9.876;2024-02-16T13:50:40;8.48;;;4.03;;
56399;SDS011;42298;53.638;9.876;2024-02-16T13:53:08;8.48;;;4.40;;
56399;SDS011;42298;53.638;9.876;2024-02-16T13:55:33;8.27;;;4.30;;
56399;SDS011;42298;53.638;9.876;2024-02-16T13:57:58;9.60;;;4.35;;
56399;SDS011;42298;53.638;9.876;2024-02-16T14:00:24;9.48;;;4.47;;
56399;SDS011;42298;53.638;9.876;2024-02-16T14:02:49;9.90;;;5.00;;
56399;SDS011;42298;53.638;9.876;2024-02-16T14:05:14;9.50;;;4.57;;
56399;SDS011;42298;53.638;9.876;2024-02-16T14:07:40;9.20;;;4.30;;
56399;SDS011;42298;53.638;9.876;2024-02-16T14:10:05;9.10;;;4.13;;
56399;SDS011;42298;53.638;9.876;2024-02-16T14:12:31;9.52;;;4.78;;
56399;SDS011;42298;53.638;9.876;2024-02-16T14:14:57;8.45;;;4.32;;
56399;SDS011;42298;53.638;9.876;2024-02-16T14:17:22;10.68;;;4.90;;
56399;SDS011;42298;53.638;9.876;2024-02-16T14:19:47;10.82;;;5.30;;
56399;SDS011;42298;53.638;9.876;2024-02-16T14:22:13;12.38;;;4.97;;
56399;SDS011;42298;53.638;9.876;2024-02-16T14:24:38;11.52;;;5.05;;
56399;SDS011;42298;53.638;9.876;2024-02-16T14:27:04;11.07;;;4.90;;
56399;SDS011;42298;53.638;9.876;2024-02-16T14:29:36;11.20;;;5.80;;
56399;SDS011;42298;53.638;9.876;2024-02-16T14:32:01;13.73;;;5.88;;
56399;SDS011;42298;53.638;9.876;2024-02-16T14:34:27;11.33;;;5.70;;
56399;SDS011;42298;53.638;9.876;2024-02-16T14:36:53;11.27;;;5.30;;
56399;SDS011;42298;53.638;9.876;2024-02-16T14:39:18;11.20;;;5.25;;
56399;SDS011;42298;53.638;9.876;2024-02-16T14:41:44;11.88;;;5.93;;
56399;SDS011;42298;53.638;9.876;2024-02-16T14:44:09;13.05;;;5.55;;
56399;SDS011;42298;53.638;9.876;2024-02-16T14:46:35;15.23;;;5.78;;
56399;SDS011;42298;53.638;9.876;2024-02-16T14:49:01;11.27;;;5.93;;